SBFZ Informações do Aeroporto

Informações da Pista
Pista 13 Comprimento 8350 ft Largura 148 ft
Elevação 82 ft Limite 0 ft Heading 105
Pista 31 Comprimento 8350 ft Largura 148 ft
Elevação 65 ft Limite 0 ft Heading 285
Frequências do Aeroporto
Tipo APP Nome FORTALEZA Frequência 133 MHZ
Tipo ATIS Nome ATIS Frequência 127.7 MHZ
Tipo GND Nome GND Frequência 121.95 MHZ
Tipo OPS Nome FORTALEZA Frequência 122.5 MHZ
Tipo TWR Nome FORTALEZA Frequência 129 MHZ
Navaids do Aeroporto
Tipo VOR-DME Nome Fortaleza Frequência 114100 KHZ
Tipo NDB Nome Fortaleza Frequência 260 KHZ
Informações meteorológicas do aeroporto e NOTAM
ADDS - METARS form results

(1126 UTC 18 January 2019)
Data provider http://aviationweather.gov/metar/data/
 
METAR text: SBFZ 181120Z 14006KT 3000 TSRA BKN014 FEW017CB 25/24 Q1014
Conditions at: SBFZ (FORTALEZA/PINTO , BR) observed 1120 UTC 18 January 2019
Temperature: 25.0°C (77°F)
Dewpoint: 24.0°C (75°F) [RH = 94%]
Pressure (altimeter): 29.94 inches Hg (1014.0 mb)
Winds: from the SE (140 degrees) at 7 MPH (6 knots; 3.1 m/s)
Visibility: 1.86 miles (2.99 km)
Ceiling: 1400 feet AGL
Clouds: broken clouds at 1400 feet AGL
few clouds at 1700 feet AGL
Weather: TSRA  (rain associated with thunderstorm(s))

METAR text: SBFZ 181100Z 11006KT 6000 -TSRA BKN017 FEW018CB 24/24 Q1014
Conditions at: SBFZ (FORTALEZA/PINTO , BR) observed 1100 UTC 18 January 2019
Temperature: 24.0°C (75°F)
Dewpoint: 24.0°C (75°F) [RH = 100%]
Pressure (altimeter): 29.94 inches Hg (1014.0 mb)
Winds: from the ESE (110 degrees) at 7 MPH (6 knots; 3.1 m/s)
Visibility: 4 miles ( 6 km)
Ceiling: 1700 feet AGL
Clouds: broken clouds at 1700 feet AGL
few clouds at 1800 feet AGL
Weather: -TSRA  (light rain associated with thunderstorm(s))

Forecast for: SBFZ (FORTALEZA/PINTO , BR)
Text: TAF SBFZ 181000Z 1812/1912 08008KT 8000 BKN020 TX30/1815Z TN25/1907Z
Forecast period: 1200 UTC 18 January 2019 to 1200 UTC 19 January 2019
Forecast type: FROM: standard forecast or significant change
Winds: from the E (80 degrees) at 9 MPH (8 knots; 4.1 m/s)
Visibility: 5 miles (8 km)
Ceiling: 2000 feet AGL
Clouds: broken clouds at 2000 feet AGL
Weather: no significant weather forecast for this period
Text: TEMPO 1812/1816 6000 SHRA RMK PEA
Forecast period: 1200 to 1600 UTC 18 January 2019
Forecast type: TEMPORARY: The following changes expected for less than half the time period
Visibility: 4 miles (6 km)
Ceiling: unknown
Clouds: missing
Weather: SHRA  (rain showers)